Wurruk, Australia
Current Conditions -  °F | °C
As of 5:00 AM on Friday 30 Jan 2015 (Local Time) from YMEN Reporting Station
Overcast Overcast  
Wind Chill: 57°   Ceiling: 5800
Heat Index: 57°   Visibility: 6mi
Dew Point: 50°   Wind: 10mph
Humidity: 77%   Direction: 140°SE
Pressure: 29.97"   Gusts: NA
Location:  38.11°S, 147.04°E
Report Text: YMEN 291800Z AUTO 14009KT 9999 // BKN058 OVC068 14/10 Q1015
Loading
Personal Weather Stations






























Interactive Weather Map New forecast layout! Learn more

10-Day Weather Forecast

Advertisements
Track Severe Weather on mobile